Time;durP1;ratioP1;P1;durP2;ratioP2;P2;SDS_P1;SDS_P2;PMS_P1;PMS_P2;Temp;Humidity;BMP_temperature;BMP_pressure;BME280_temperature;BME280_humidity;BME280_pressure;Samples;Min_cycle;Max_cycle;Signal;HPM_P1;HPM_P2
2023/01/23 00:01:59;;;;;;;3.88;2.25;;;;;;;;;;10369521;28;20022;-61
2023/01/23 00:07:02;;;;;;;4.07;2.10;;;;;;;;;;10369061;28;20103;-59
2023/01/23 00:12:04;;;;;;;2.97;2.15;;;;;;;;;;10368074;28;20052;-64
2023/01/23 00:17:05;;;;;;;7.82;2.63;;;;;;;;;;10367932;28;20105;-64
2023/01/23 00:22:05;;;;;;;2.75;2.25;;;;;;;;;;10368546;28;20520;-53
2023/01/23 00:27:06;;;;;;;4.43;2.47;;;;;;;;;;10368487;28;20030;-45
2023/01/23 00:32:06;;;;;;;2.97;1.92;;;;;;;;;;10368085;28;20026;-49
2023/01/23 00:37:07;;;;;;;5.25;2.05;;;;;;;;;;10367527;28;20067;-50
2023/01/23 00:42:08;;;;;;;4.18;2.75;;;;;;;;;;10369190;28;20084;-53
2023/01/23 00:47:08;;;;;;;2.30;1.88;;;;;;;;;;10367172;28;20477;-52
2023/01/23 00:52:09;;;;;;;2.75;2.03;;;;;;;;;;10366173;28;20061;-48
2023/01/23 00:57:09;;;;;;;4.00;2.40;;;;;;;;;;10367460;28;20217;-45
2023/01/23 01:02:10;;;;;;;2.97;2.28;;;;;;;;;;10367475;28;20524;-45
2023/01/23 01:07:10;;;;;;;3.70;2.15;;;;;;;;;;10366773;28;20092;-64
2023/01/23 01:12:12;;;;;;;3.63;2.00;;;;;;;;;;10366845;28;20037;-47
2023/01/23 01:17:13;;;;;;;4.68;2.05;;;;;;;;;;10366398;28;20123;-45
2023/01/23 01:22:14;;;;;;;3.65;2.08;;;;;;;;;;10366999;28;20172;-48
2023/01/23 01:27:14;;;;;;;2.85;1.85;;;;;;;;;;10366610;28;20033;-46
2023/01/23 01:32:15;;;;;;;3.47;2.33;;;;;;;;;;10366586;28;20121;-46
2023/01/23 01:37:15;;;;;;;2.55;1.77;;;;;;;;;;10366344;28;20046;-49
2023/01/23 01:42:16;;;;;;;3.45;2.08;;;;;;;;;;10366127;28;20429;-64
2023/01/23 01:47:17;;;;;;;1.92;1.73;;;;;;;;;;10364570;28;20084;-67
2023/01/23 01:52:19;;;;;;;2.05;1.58;;;;;;;;;;10364413;28;20056;-61
2023/01/23 01:57:23;;;;;;;3.15;2.40;;;;;;;;;;10365756;28;20026;-63
2023/01/23 02:02:37;;;;;;;2.45;1.63;;;;;;;;;;10365472;28;20525;-59
2023/01/23 02:08:04;;;;;;;4.15;1.88;;;;;;;;;;10348167;28;20064;-60
2023/01/23 02:13:34;;;;;;;4.05;2.10;;;;;;;;;;10365038;28;20033;-53
2023/01/23 02:18:43;;;;;;;2.83;1.88;;;;;;;;;;10365246;28;20091;-46
2023/01/23 02:24:13;;;;;;;3.05;1.90;;;;;;;;;;10347317;28;20034;-51
2023/01/23 02:29:15;;;;;;;2.67;1.83;;;;;;;;;;10337319;28;20044;-45
2023/01/23 02:34:16;;;;;;;3.42;1.77;;;;;;;;;;10363925;28;20269;-52
2023/01/23 02:39:18;;;;;;;2.47;1.80;;;;;;;;;;10364885;28;20277;-48
2023/01/23 02:44:26;;;;;;;2.58;2.05;;;;;;;;;;10364382;28;20465;-66
2023/01/23 02:49:28;;;;;;;1.93;1.77;;;;;;;;;;10364168;28;20025;-65
2023/01/23 02:54:28;;;;;;;2.60;1.98;;;;;;;;;;10362966;28;20046;-52
2023/01/23 03:04:48;;;;;;;2.42;1.70;;;;;;;;;;10370969;28;20022;-57
2023/01/23 03:09:49;;;;;;;2.83;2.08;;;;;;;;;;10371292;28;20405;-45
2023/01/23 03:14:53;;;;;;;2.33;1.77;;;;;;;;;;10370605;28;20033;-45
2023/01/23 03:19:56;;;;;;;2.78;2.00;;;;;;;;;;10370298;28;20116;-65
2023/01/23 03:24:57;;;;;;;1.80;1.65;;;;;;;;;;10371512;28;20061;-64
2023/01/23 03:30:14;;;;;;;3.00;2.03;;;;;;;;;;10370473;28;20033;-53
2023/01/23 03:35:16;;;;;;;2.58;1.55;;;;;;;;;;10369461;28;20038;-57
2023/01/23 03:45:42;;;;;;;3.92;1.80;;;;;;;;;;10362746;28;20038;-61
2023/01/23 03:50:42;;;;;;;1.80;1.67;;;;;;;;;;10369795;28;20046;-67
2023/01/23 03:55:47;;;;;;;2.15;1.52;;;;;;;;;;10369147;28;20064;-60
2023/01/23 04:00:47;;;;;;;2.08;1.85;;;;;;;;;;10370400;28;20038;-64
2023/01/23 04:05:48;;;;;;;3.47;1.58;;;;;;;;;;10369627;28;20058;-63
2023/01/23 04:10:49;;;;;;;2.92;1.70;;;;;;;;;;10369789;28;20025;-67
2023/01/23 04:15:49;;;;;;;3.95;1.92;;;;;;;;;;10368278;28;20462;-48
2023/01/23 04:20:50;;;;;;;1.65;1.55;;;;;;;;;;10368875;28;20022;-45
2023/01/23 04:25:51;;;;;;;1.85;1.50;;;;;;;;;;10369402;28;20022;-45
2023/01/23 04:30:52;;;;;;;2.00;1.80;;;;;;;;;;10369157;28;20057;-45
2023/01/23 04:35:56;;;;;;;2.92;1.67;;;;;;;;;;10367953;28;20113;-46
2023/01/23 04:40:57;;;;;;;2.63;1.98;;;;;;;;;;10368784;28;20030;-45
2023/01/23 04:45:57;;;;;;;2.10;1.60;;;;;;;;;;10367766;28;20374;-46
2023/01/23 04:50:58;;;;;;;1.90;1.70;;;;;;;;;;10369123;28;20132;-46
2023/01/23 04:55:58;;;;;;;2.47;1.60;;;;;;;;;;10367123;28;20034;-46
2023/01/23 05:01:06;;;;;;;3.15;1.60;;;;;;;;;;10366899;28;20021;-64
2023/01/23 05:06:07;;;;;;;1.90;1.70;;;;;;;;;;10366662;28;20041;-61
2023/01/23 05:11:08;;;;;;;2.35;1.70;;;;;;;;;;10367111;28;20018;-59
2023/01/23 05:16:08;;;;;;;2.25;1.90;;;;;;;;;;10366200;28;20563;-60
2023/01/23 05:21:09;;;;;;;1.52;1.40;;;;;;;;;;10366027;28;20026;-61
2023/01/23 05:26:10;;;;;;;1.63;1.50;;;;;;;;;;10365369;28;20030;-61
2023/01/23 05:31:11;;;;;;;1.65;1.55;;;;;;;;;;10365971;28;20273;-66
2023/01/23 05:36:12;;;;;;;2.85;1.60;;;;;;;;;;10365551;28;20057;-60
2023/01/23 05:41:13;;;;;;;1.50;1.40;;;;;;;;;;10366064;28;20539;-65
2023/01/23 05:46:13;;;;;;;2.10;1.45;;;;;;;;;;10365281;28;20038;-50
2023/01/23 05:51:14;;;;;;;1.85;1.60;;;;;;;;;;10366660;28;20042;-58
2023/01/23 05:56:14;;;;;;;1.83;1.27;;;;;;;;;;10363570;28;20081;-50
2023/01/23 06:01:15;;;;;;;1.40;1.30;;;;;;;;;;10365046;28;20033;-57
2023/01/23 06:06:16;;;;;;;1.55;1.45;;;;;;;;;;10362663;28;20056;-56
2023/01/23 06:11:16;;;;;;;1.85;1.60;;;;;;;;;;10364403;28;20119;-62
2023/01/23 06:16:17;;;;;;;1.42;1.33;;;;;;;;;;10364313;28;20101;-47
2023/01/23 06:21:18;;;;;;;1.98;1.70;;;;;;;;;;10363914;28;20030;-56
2023/01/23 06:26:18;;;;;;;1.70;1.60;;;;;;;;;;10363722;28;20033;-50
2023/01/23 06:31:19;;;;;;;2.05;1.38;;;;;;;;;;10362673;28;20025;-45
2023/01/23 06:36:26;;;;;;;1.90;1.50;;;;;;;;;;10365036;28;20112;-45
2023/01/23 06:41:26;;;;;;;16.73;1.90;;;;;;;;;;10369496;28;20037;-46
2023/01/23 06:46:27;;;;;;;10.40;1.83;;;;;;;;;;10368314;28;20049;-46
2023/01/23 06:51:27;;;;;;;6.90;1.70;;;;;;;;;;10373032;28;20033;-46
2023/01/23 06:56:28;;;;;;;3.80;1.77;;;;;;;;;;10369117;28;20036;-45
2023/01/23 07:01:29;;;;;;;7.93;1.73;;;;;;;;;;10371494;28;20022;-55
2023/01/23 07:06:30;;;;;;;4.35;1.90;;;;;;;;;;10368257;28;20502;-49
2023/01/23 07:11:30;;;;;;;6.78;2.05;;;;;;;;;;10368547;28;20033;-54
2023/01/23 07:16:31;;;;;;;3.38;1.65;;;;;;;;;;10374229;28;20469;-47
2023/01/23 07:21:32;;;;;;;6.55;2.00;;;;;;;;;;10353521;28;20105;-49
2023/01/23 07:26:33;;;;;;;10.95;1.98;;;;;;;;;;10369845;28;20025;-57
2023/01/23 07:31:35;;;;;;;7.75;1.80;;;;;;;;;;10372019;28;20030;-50
2023/01/23 07:36:35;;;;;;;15.00;2.28;;;;;;;;;;10370524;28;20099;-52
2023/01/23 07:41:36;;;;;;;7.18;2.15;;;;;;;;;;10366749;28;20076;-56
2023/01/23 07:46:37;;;;;;;11.93;2.00;;;;;;;;;;10369929;28;20056;-51
2023/01/23 07:51:38;;;;;;;6.97;1.80;;;;;;;;;;10369913;28;20048;-56
2023/01/23 07:56:39;;;;;;;22.92;2.22;;;;;;;;;;10369589;28;20107;-52
2023/01/23 08:01:40;;;;;;;7.82;1.85;;;;;;;;;;10351797;28;20037;-52
2023/01/23 08:06:40;;;;;;;4.68;1.85;;;;;;;;;;10368558;28;20030;-54
2023/01/23 08:11:41;;;;;;;12.63;1.73;;;;;;;;;;10369541;28;20037;-46
2023/01/23 08:16:41;;;;;;;10.52;2.03;;;;;;;;;;10368870;28;20029;-48
2023/01/23 08:21:43;;;;;;;10.73;1.75;;;;;;;;;;10368765;28;20033;-50
2023/01/23 08:26:43;;;;;;;4.20;1.83;;;;;;;;;;10368360;28;20058;-60
2023/01/23 08:31:44;;;;;;;4.40;1.92;;;;;;;;;;10368624;28;20104;-59
2023/01/23 08:36:44;;;;;;;4.55;2.20;;;;;;;;;;10369289;28;20488;-55
2023/01/23 08:41:45;;;;;;;5.97;1.90;;;;;;;;;;10368509;28;20502;-54
2023/01/23 08:46:46;;;;;;;6.45;2.15;;;;;;;;;;10367428;28;20038;-54
2023/01/23 08:51:47;;;;;;;5.70;1.60;;;;;;;;;;10368198;28;20026;-46
2023/01/23 08:56:47;;;;;;;4.93;1.98;;;;;;;;;;10367743;28;20026;-51
2023/01/23 09:01:48;;;;;;;5.10;1.58;;;;;;;;;;10367779;28;20036;-47
2023/01/23 09:06:48;;;;;;;3.50;1.65;;;;;;;;;;10366433;28;20088;-47
2023/01/23 09:11:52;;;;;;;3.22;1.65;;;;;;;;;;10367073;28;20087;-47
2023/01/23 09:16:53;;;;;;;5.50;2.22;;;;;;;;;;10365925;28;20030;-48
2023/01/23 09:21:55;;;;;;;2.00;1.40;;;;;;;;;;10367056;28;20053;-60
2023/01/23 09:26:56;;;;;;;9.48;2.65;;;;;;;;;;10366225;28;20105;-48
2023/01/23 09:31:57;;;;;;;6.57;1.60;;;;;;;;;;10365904;28;20664;-46
2023/01/23 09:36:58;;;;;;;3.67;1.75;;;;;;;;;;10366542;28;20034;-46
2023/01/23 09:42:06;;;;;;;4.47;1.48;;;;;;;;;;10366140;28;20030;-47
2023/01/23 09:47:24;;;;;;;;;;;;;;;;;;10366401;28;20095;-50
2023/01/23 09:52:37;;;;;;;3.63;1.70;;;;;;;;;;10365196;28;20320;-47
2023/01/23 09:57:48;;;;;;;2.45;1.60;;;;;;;;;;10344634;28;20485;-51
2023/01/23 10:02:52;;;;;;;5.00;1.58;;;;;;;;;;10364091;28;20029;-51
2023/01/23 10:08:26;;;;;;;4.47;1.63;;;;;;;;;;10363787;28;20058;-53
2023/01/23 10:13:53;;;;;;;2.47;1.50;;;;;;;;;;10361178;28;20030;-51
2023/01/23 10:19:16;;;;;;;6.65;1.63;;;;;;;;;;10338089;28;20029;-46
2023/01/23 10:24:48;;;;;;;2.67;1.70;;;;;;;;;;10364120;28;20053;-57
2023/01/23 10:30:03;;;;;;;6.15;1.80;;;;;;;;;;10380080;28;20026;-49
2023/01/23 10:35:43;;;;;;;4.20;1.83;;;;;;;;;;10349798;28;20036;-57
2023/01/23 10:46:32;;;;;;;3.55;1.73;;;;;;;;;;10356960;28;20061;-48
2023/01/23 10:51:38;;;;;;;2.15;1.30;;;;;;;;;;10365119;28;20404;-46
2023/01/23 10:57:23;;;;;;;5.50;2.08;;;;;;;;;;10363915;28;20033;-49
2023/01/23 11:02:36;;;;;;;3.88;1.60;;;;;;;;;;10361893;28;20562;-55
2023/01/23 11:07:39;;;;;;;2.97;1.48;;;;;;;;;;10369651;28;20038;-65
2023/01/23 11:12:53;;;;;;;2.60;1.50;;;;;;;;;;10364498;28;20163;-46
2023/01/23 11:17:59;;;;;;;4.25;1.88;;;;;;;;;;10364516;28;20493;-46
2023/01/23 11:23:14;;;;;;;1.75;1.33;;;;;;;;;;10366252;28;20030;-46
2023/01/23 11:28:29;;;;;;;2.70;1.45;;;;;;;;;;10376683;28;20083;-47
2023/01/23 11:33:51;;;;;;;1.80;1.65;;;;;;;;;;10368887;28;20036;-46
2023/01/23 11:39:21;;;;;;;5.45;1.55;;;;;;;;;;10371985;28;20100;-47
2023/01/23 11:44:23;;;;;;;2.80;1.10;;;;;;;;;;10358956;28;20057;-53
2023/01/23 11:49:50;;;;;;;4.53;1.33;;;;;;;;;;10376306;28;20029;-53
2023/01/23 11:55:19;;;;;;;2.10;1.40;;;;;;;;;;10369137;28;20440;-55
2023/01/23 12:01:21;;;;;;;3.20;1.90;;;;;;;;;;10353336;28;20565;-48
2023/01/23 12:06:47;;;;;;;2.20;1.42;;;;;;;;;;10305203;28;20997;-50
2023/01/23 12:12:35;;;;;;;2.53;1.38;;;;;;;;;;10370082;28;20109;-45
2023/01/23 12:18:05;;;;;;;1.98;1.48;;;;;;;;;;10370518;28;20432;-45
2023/01/23 12:23:35;;;;;;;1.00;1.00;;;;;;;;;;10344833;28;20040;-46
2023/01/23 12:29:03;;;;;;;1.92;1.20;;;;;;;;;;10357714;28;20390;-46
2023/01/23 12:34:34;;;;;;;2.05;1.30;;;;;;;;;;10368546;28;20022;-46
2023/01/23 12:39:45;;;;;;;1.88;1.20;;;;;;;;;;10368767;28;20448;-46
2023/01/23 12:45:06;;;;;;;2.40;1.17;;;;;;;;;;10366174;28;20030;-46
2023/01/23 12:50:21;;;;;;;3.30;1.60;;;;;;;;;;10364845;28;20049;-46
2023/01/23 12:55:29;;;;;;;1.45;1.20;;;;;;;;;;10367589;28;20541;-56
2023/01/23 13:00:45;;;;;;;2.10;1.17;;;;;;;;;;10365125;28;20495;-67
2023/01/23 13:05:57;;;;;;;1.38;1.02;;;;;;;;;;10344780;28;20030;-55
2023/01/23 13:11:40;;;;;;;3.63;1.35;;;;;;;;;;10366245;28;20017;-56
2023/01/23 13:16:46;;;;;;;4.72;1.38;;;;;;;;;;10355745;28;20034;-54
2023/01/23 13:22:20;;;;;;;2.28;1.27;;;;;;;;;;10368070;28;20391;-62
2023/01/23 13:27:50;;;;;;;1.67;1.20;;;;;;;;;;10347632;28;20125;-65
2023/01/23 13:32:54;;;;;;;2.72;0.90;;;;;;;;;;10365002;28;20065;-67
2023/01/23 13:37:58;;;;;;;1.10;1.00;;;;;;;;;;10368194;28;20101;-58
2023/01/23 13:43:18;;;;;;;1.33;1.00;;;;;;;;;;10362293;28;20029;-69
2023/01/23 13:59:52;;;;;;;1.15;1.00;;;;;;;;;;10362662;28;20037;-66
2023/01/23 14:05:14;;;;;;;0.98;0.88;;;;;;;;;;10363110;28;20105;-68
2023/01/23 14:10:19;;;;;;;5.75;1.20;;;;;;;;;;10360975;28;20620;-47
2023/01/23 14:20:43;;;;;;;2.30;1.10;;;;;;;;;;10361999;28;20034;-58
2023/01/23 14:25:44;;;;;;;2.97;1.42;;;;;;;;;;10363833;28;20393;-55
2023/01/23 14:31:02;;;;;;;2.13;1.00;;;;;;;;;;10360694;28;20029;-56
2023/01/23 14:36:03;;;;;;;2.23;1.10;;;;;;;;;;10358221;28;20049;-61
2023/01/23 14:41:06;;;;;;;3.60;1.27;;;;;;;;;;10364354;28;20018;-61
2023/01/23 14:46:19;;;;;;;6.53;1.10;;;;;;;;;;10362949;28;20041;-60
2023/01/23 14:51:24;;;;;;;2.88;1.00;;;;;;;;;;10361228;28;20044;-61
2023/01/23 14:56:35;;;;;;;1.02;0.93;;;;;;;;;;10366338;28;20046;-60
2023/01/23 15:01:35;;;;;;;1.48;1.17;;;;;;;;;;10370941;28;20033;-56
2023/01/23 15:06:36;;;;;;;4.88;1.30;;;;;;;;;;10370993;28;20397;-60
2023/01/23 15:11:37;;;;;;;1.35;1.25;;;;;;;;;;10372859;28;20494;-47
2023/01/23 15:16:37;;;;;;;1.15;1.02;;;;;;;;;;10370602;28;20402;-64
2023/01/23 15:21:40;;;;;;;2.85;1.13;;;;;;;;;;10365082;28;20146;-54
2023/01/23 15:27:00;;;;;;;0.80;0.80;;;;;;;;;;10362865;28;20052;-49
2023/01/23 15:32:00;;;;;;;2.45;1.00;;;;;;;;;;10368006;28;20129;-61
2023/01/23 15:37:04;;;;;;;1.42;1.10;;;;;;;;;;10370026;28;20113;-47
2023/01/23 15:42:33;;;;;;;7.88;1.30;;;;;;;;;;10367470;28;20045;-47
2023/01/23 15:47:33;;;;;;;2.25;1.00;;;;;;;;;;10365721;28;20062;-47
2023/01/23 15:52:43;;;;;;;1.85;1.35;;;;;;;;;;10355603;28;20046;-54
2023/01/23 15:57:43;;;;;;;4.90;1.58;;;;;;;;;;10369312;28;20030;-50
2023/01/23 16:02:44;;;;;;;5.38;1.20;;;;;;;;;;10368911;28;20505;-48
2023/01/23 16:07:46;;;;;;;1.90;1.00;;;;;;;;;;10368186;28;20038;-48
2023/01/23 16:12:49;;;;;;;2.60;0.95;;;;;;;;;;10364598;28;20045;-48
2023/01/23 16:17:50;;;;;;;1.85;1.10;;;;;;;;;;10369285;28;20021;-49
2023/01/23 16:22:55;;;;;;;1.50;1.00;;;;;;;;;;10361162;28;20036;-60
2023/01/23 16:27:56;;;;;;;2.08;0.98;;;;;;;;;;10363608;28;20030;-66
2023/01/23 16:32:57;;;;;;;1.98;1.00;;;;;;;;;;10363580;28;20030;-53
2023/01/23 16:37:58;;;;;;;1.38;1.00;;;;;;;;;;10368855;28;20548;-47
2023/01/23 16:43:01;;;;;;;1.48;1.15;;;;;;;;;;10357209;28;20022;-47
2023/01/23 16:48:02;;;;;;;2.13;0.90;;;;;;;;;;10368790;28;20129;-60
2023/01/23 16:53:21;;;;;;;0.88;0.88;;;;;;;;;;10368312;28;20050;-58
2023/01/23 16:58:25;;;;;;;;;;;;;;;;;;10364937;28;20048;-47
2023/01/23 17:03:31;;;;;;;3.08;0.95;;;;;;;;;;10356361;28;20377;-52
2023/01/23 17:08:32;;;;;;;3.60;1.20;;;;;;;;;;10360978;28;20462;-50
2023/01/23 17:13:34;;;;;;;1.95;1.10;;;;;;;;;;10363600;28;20045;-49
2023/01/23 17:18:36;;;;;;;1.35;1.00;;;;;;;;;;10363353;28;20117;-47
2023/01/23 17:23:36;;;;;;;3.90;1.13;;;;;;;;;;10362955;28;20033;-61
2023/01/23 17:28:37;;;;;;;2.72;1.17;;;;;;;;;;10357099;28;20030;-65
2023/01/23 17:33:37;;;;;;;3.92;0.95;;;;;;;;;;10359770;28;20038;-47
2023/01/23 17:38:40;;;;;;;1.58;0.90;;;;;;;;;;10360110;28;20104;-62
2023/01/23 17:43:43;;;;;;;1.42;0.90;;;;;;;;;;10362477;28;20134;-49
2023/01/23 17:48:43;;;;;;;3.20;1.00;;;;;;;;;;10364915;28;20037;-46
2023/01/23 17:53:45;;;;;;;4.03;1.13;;;;;;;;;;10365020;28;20046;-49
2023/01/23 17:58:45;;;;;;;3.75;1.08;;;;;;;;;;10364922;28;20038;-59
2023/01/23 18:03:48;;;;;;;2.45;1.17;;;;;;;;;;10363776;28;20437;-68
2023/01/23 18:08:49;;;;;;;1.10;1.00;;;;;;;;;;10362731;28;20030;-64
2023/01/23 18:14:36;;;;;;;6.00;1.30;;;;;;;;;;10357528;28;20026;-64
2023/01/23 18:19:37;;;;;;;5.38;0.90;;;;;;;;;;10361112;28;20025;-49
2023/01/23 18:24:38;;;;;;;3.72;1.10;;;;;;;;;;10347196;28;20021;-46
2023/01/23 18:29:55;;;;;;;1.80;1.05;;;;;;;;;;10357971;28;20041;-47
2023/01/23 18:35:39;;;;;;;2.25;1.10;;;;;;;;;;10361115;28;20034;-48
2023/01/23 18:41:30;;;;;;;1.40;1.10;;;;;;;;;;10355098;28;20034;-47
2023/01/23 18:46:32;;;;;;;1.67;0.93;;;;;;;;;;10360710;28;20042;-47
2023/01/23 18:51:53;;;;;;;1.08;0.98;;;;;;;;;;10361065;28;20761;-51
2023/01/23 18:57:29;;;;;;;2.75;1.23;;;;;;;;;;10365783;28;20477;-47
2023/01/23 19:02:43;;;;;;;3.05;1.10;;;;;;;;;;10360951;28;20036;-47
2023/01/23 19:07:45;;;;;;;1.35;1.10;;;;;;;;;;10357210;28;20041;-47
2023/01/23 19:12:59;;;;;;;1.42;1.20;;;;;;;;;;10349967;28;20420;-64
2023/01/23 19:18:28;;;;;;;8.20;1.20;;;;;;;;;;10350850;28;20276;-62
2023/01/23 19:23:43;;;;;;;3.45;1.15;;;;;;;;;;10350755;28;20037;-55
2023/01/23 19:28:43;;;;;;;3.65;1.27;;;;;;;;;;10358102;28;20038;-52
2023/01/23 19:33:44;;;;;;;3.13;1.13;;;;;;;;;;10361143;28;20044;-47
2023/01/23 19:38:45;;;;;;;1.10;1.00;;;;;;;;;;10360612;28;20022;-57
2023/01/23 19:43:54;;;;;;;1.70;1.20;;;;;;;;;;10364089;28;20109;-48
2023/01/23 19:48:56;;;;;;;2.58;1.13;;;;;;;;;;10367058;28;20038;-50
2023/01/23 19:53:57;;;;;;;2.17;1.25;;;;;;;;;;10370690;28;20413;-49
2023/01/23 19:58:58;;;;;;;3.25;1.30;;;;;;;;;;10369289;28;20038;-52
2023/01/23 20:03:59;;;;;;;2.65;1.15;;;;;;;;;;10367768;28;20449;-47
2023/01/23 20:08:59;;;;;;;1.60;1.40;;;;;;;;;;10374980;28;20167;-46
2023/01/23 20:14:00;;;;;;;1.55;1.10;;;;;;;;;;10366879;28;20492;-46
2023/01/23 20:19:01;;;;;;;5.80;1.30;;;;;;;;;;10379900;28;20100;-46
2023/01/23 20:24:01;;;;;;;1.75;1.10;;;;;;;;;;10372753;28;20033;-52
2023/01/23 20:29:02;;;;;;;2.42;1.30;;;;;;;;;;10370932;28;20038;-46
2023/01/23 20:34:03;;;;;;;2.40;1.40;;;;;;;;;;10364973;28;20037;-50
2023/01/23 20:39:04;;;;;;;7.55;2.55;;;;;;;;;;10363200;28;20034;-61
2023/01/23 20:44:05;;;;;;;17.77;2.15;;;;;;;;;;10364024;28;20113;-48
2023/01/23 20:49:05;;;;;;;5.20;1.67;;;;;;;;;;10367270;28;20469;-47
2023/01/23 20:54:06;;;;;;;9.77;1.80;;;;;;;;;;10360698;28;20042;-50
2023/01/23 20:59:17;;;;;;;5.32;1.65;;;;;;;;;;10365026;28;20029;-45
2023/01/23 21:04:18;;;;;;;7.72;1.67;;;;;;;;;;10365941;28;20033;-45
2023/01/23 21:09:20;;;;;;;6.38;2.30;;;;;;;;;;10360227;28;20038;-58
2023/01/23 21:14:22;;;;;;;4.43;1.55;;;;;;;;;;10361238;28;20513;-54
2023/01/23 21:19:23;;;;;;;2.72;1.23;;;;;;;;;;10365035;28;20026;-53
2023/01/23 21:24:24;;;;;;;11.48;1.55;;;;;;;;;;10359296;28;20382;-52
2023/01/23 21:29:25;;;;;;;15.55;1.90;;;;;;;;;;10360868;28;20033;-51
2023/01/23 21:34:26;;;;;;;16.73;3.15;;;;;;;;;;10367031;28;20026;-60
2023/01/23 21:39:26;;;;;;;8.68;2.10;;;;;;;;;;10364303;28;20026;-54
2023/01/23 21:44:27;;;;;;;15.60;2.08;;;;;;;;;;10357772;28;20409;-57
2023/01/23 21:49:29;;;;;;;17.02;2.80;;;;;;;;;;10360879;28;20036;-55
2023/01/23 21:54:30;;;;;;;5.60;1.60;;;;;;;;;;10367874;28;20100;-56
2023/01/23 21:59:30;;;;;;;5.88;1.80;;;;;;;;;;10362945;28;20497;-58
2023/01/23 22:04:31;;;;;;;14.60;2.13;;;;;;;;;;10362801;28;20033;-61
2023/01/23 22:09:32;;;;;;;10.50;1.98;;;;;;;;;;10350088;28;20026;-59
2023/01/23 22:14:32;;;;;;;23.98;2.47;;;;;;;;;;10365143;28;20026;-61
2023/01/23 22:19:33;;;;;;;12.80;1.70;;;;;;;;;;10374310;28;20030;-62
2023/01/23 22:24:33;;;;;;;5.30;1.95;;;;;;;;;;10357183;28;20026;-48
2023/01/23 22:29:34;;;;;;;5.85;1.52;;;;;;;;;;10360492;28;20499;-51
2023/01/23 22:34:35;;;;;;;8.98;1.60;;;;;;;;;;10363184;28;20026;-54
2023/01/23 22:39:35;;;;;;;6.57;1.85;;;;;;;;;;10361272;28;20026;-60
2023/01/23 22:44:36;;;;;;;5.80;1.73;;;;;;;;;;10361994;28;20029;-53
2023/01/23 22:49:37;;;;;;;9.32;1.77;;;;;;;;;;10357687;28;20481;-55
2023/01/23 22:54:37;;;;;;;6.97;1.77;;;;;;;;;;10361849;28;20042;-56
2023/01/23 22:59:38;;;;;;;3.25;1.77;;;;;;;;;;10361794;28;20034;-68
2023/01/23 23:04:38;;;;;;;5.88;1.70;;;;;;;;;;10362764;28;20026;-57
2023/01/23 23:09:39;;;;;;;4.88;1.80;;;;;;;;;;10362808;28;20033;-60
2023/01/23 23:14:40;;;;;;;4.38;1.65;;;;;;;;;;10362724;28;20041;-63
2023/01/23 23:19:40;;;;;;;7.50;1.75;;;;;;;;;;10366985;28;20497;-61
2023/01/23 23:24:41;;;;;;;5.97;1.50;;;;;;;;;;10370066;28;20038;-59
2023/01/23 23:29:42;;;;;;;3.85;1.40;;;;;;;;;;10370443;28;20501;-51
2023/01/23 23:34:43;;;;;;;6.13;1.70;;;;;;;;;;10369686;28;20584;-67
2023/01/23 23:39:44;;;;;;;2.67;1.50;;;;;;;;;;10370690;28;20433;-70
2023/01/23 23:44:45;;;;;;;6.85;2.05;;;;;;;;;;10368814;28;20085;-62
2023/01/23 23:49:45;;;;;;;5.22;1.60;;;;;;;;;;10369008;28;20065;-67
2023/01/23 23:54:46;;;;;;;2.28;1.35;;;;;;;;;;10368632;28;20498;-64
2023/01/23 23:59:46;;;;;;;2.65;1.35;;;;;;;;;;10368612;28;20040;-61
